createdAt,value
2023-03-21T00:00:59.358Z,12.10
2023-03-21T00:04:58.518Z,17.70
2023-03-21T00:08:57.156Z,12.90
2023-03-21T00:12:52.169Z,16.00
2023-03-21T00:16:48.725Z,15.60
2023-03-21T00:20:51.271Z,14.50
2023-03-21T00:24:48.845Z,16.70
2023-03-21T00:28:45.455Z,18.70
2023-03-21T00:32:49.294Z,17.00
2023-03-21T00:36:50.384Z,17.30
2023-03-21T00:40:32.968Z,21.10
2023-03-21T00:44:38.763Z,21.40
2023-03-21T00:48:28.668Z,14.00
2023-03-21T00:52:40.610Z,17.30
2023-03-21T00:56:44.826Z,24.60
2023-03-21T01:00:41.291Z,12.90
2023-03-21T01:04:31.926Z,9.80
2023-03-21T01:08:31.261Z,11.90
2023-03-21T01:12:23.922Z,11.80
2023-03-21T01:16:09.250Z,9.70
2023-03-21T01:20:04.693Z,6.60
2023-03-21T01:23:52.629Z,5.00
2023-03-21T01:27:40.973Z,4.40
2023-03-21T01:31:47.839Z,4.00
2023-03-21T01:35:48.029Z,4.00
2023-03-21T01:39:40.430Z,3.70
2023-03-21T01:43:42.953Z,4.40
2023-03-21T01:47:46.615Z,3.70
2023-03-21T01:51:42.617Z,3.60
2023-03-21T01:55:39.635Z,2.90
2023-03-21T01:59:43.458Z,3.60
2023-03-21T02:03:47.266Z,3.70
2023-03-21T02:07:48.358Z,4.10
2023-03-21T02:11:38.113Z,4.70
2023-03-21T02:15:34.608Z,4.30
2023-03-21T02:19:32.814Z,4.10
2023-03-21T02:23:42.311Z,3.50
2023-03-21T02:28:05.882Z,5.10
2023-03-21T02:32:34.880Z,4.90
2023-03-21T02:37:18.263Z,4.40
2023-03-21T02:41:40.068Z,4.20
2023-03-21T02:46:24.276Z,4.70
2023-03-21T02:50:22.423Z,5.40
2023-03-21T02:54:35.100Z,4.20
2023-03-21T02:58:42.816Z,4.30
2023-03-21T03:02:47.562Z,5.10
2023-03-21T03:06:53.237Z,4.00
2023-03-21T03:11:10.994Z,4.00
2023-03-21T03:15:16.214Z,3.80
2023-03-21T03:19:34.481Z,3.80
2023-03-21T03:23:45.963Z,4.00
2023-03-21T03:27:41.841Z,4.60
2023-03-21T03:31:45.470Z,3.30
2023-03-21T03:35:26.268Z,4.40
2023-03-21T03:39:15.940Z,2.90
2023-03-21T03:43:14.905Z,3.50
2023-03-21T03:47:04.261Z,4.80
2023-03-21T03:51:03.618Z,2.80
2023-03-21T03:55:07.332Z,4.10
2023-03-21T03:58:58.180Z,3.60
2023-03-21T04:02:46.009Z,4.10
2023-03-21T04:06:29.323Z,4.30
2023-03-21T04:10:29.402Z,4.40
2023-03-21T04:14:44.093Z,5.50
2023-03-21T04:18:39.547Z,4.10
2023-03-21T04:22:34.686Z,3.30
2023-03-21T04:26:38.530Z,3.10
2023-03-21T04:30:09.962Z,2.70
2023-03-21T04:34:00.122Z,3.20
2023-03-21T04:37:49.056Z,3.40
2023-03-21T04:41:44.291Z,3.40
2023-03-21T04:45:48.084Z,3.30
2023-03-21T04:49:45.168Z,4.20
2023-03-21T04:53:39.969Z,3.40
2023-03-21T04:57:39.869Z,3.90
2023-03-21T05:01:34.079Z,4.20
2023-03-21T05:05:11.967Z,3.90
2023-03-21T05:09:04.218Z,3.60
2023-03-21T05:13:00.457Z,3.80
2023-03-21T05:17:03.385Z,3.10
2023-03-21T05:20:53.230Z,3.60
2023-03-21T05:24:42.883Z,3.60
2023-03-21T05:28:27.341Z,4.30
2023-03-21T05:32:31.387Z,5.30
2023-03-21T05:36:55.115Z,4.40
2023-03-21T05:40:43.460Z,4.20
2023-03-21T05:44:37.300Z,4.30
2023-03-21T05:48:34.601Z,4.70
2023-03-21T05:52:38.174Z,3.40
2023-03-21T05:57:02.073Z,5.30
2023-03-21T06:01:06.336Z,5.60
2023-03-21T06:05:26.033Z,6.50
2023-03-21T06:09:38.259Z,6.00
2023-03-21T06:13:32.814Z,5.70
2023-03-21T06:17:36.477Z,4.10
2023-03-21T06:21:30.182Z,5.70
2023-03-21T06:25:04.312Z,5.10
2023-03-21T06:28:23.892Z,5.70
2023-03-21T06:32:05.841Z,6.00
2023-03-21T06:35:35.742Z,6.80
2023-03-21T06:39:00.321Z,7.00
2023-03-21T06:42:32.691Z,8.50
2023-03-21T06:46:06.265Z,7.60
2023-03-21T06:49:46.588Z,7.80
2023-03-21T06:53:20.694Z,8.10
2023-03-21T06:56:32.545Z,6.40
2023-03-21T06:59:41.160Z,6.90
2023-03-21T07:02:48.771Z,7.60
2023-03-21T07:05:53.751Z,7.50
2023-03-21T07:08:59.809Z,7.50
2023-03-21T07:12:10.183Z,8.60
2023-03-21T07:15:13.115Z,8.30
2023-03-21T07:18:23.730Z,12.90
2023-03-21T07:21:26.657Z,9.20
2023-03-21T07:24:29.562Z,13.50
2023-03-21T07:27:51.099Z,11.50
2023-03-21T07:31:05.451Z,12.50
2023-03-21T07:34:17.845Z,11.80
2023-03-21T07:37:23.991Z,15.40
2023-03-21T07:40:50.667Z,12.40
2023-03-21T07:43:59.352Z,15.80
2023-03-21T07:47:07.010Z,14.90
2023-03-21T07:51:05.811Z,15.90
2023-03-21T07:55:03.116Z,15.90
2023-03-21T07:58:46.178Z,15.60
2023-03-21T08:02:45.545Z,16.40
2023-03-21T08:06:16.881Z,14.20
2023-03-21T08:09:48.217Z,10.10
2023-03-21T08:13:37.962Z,10.90
2023-03-21T08:17:10.791Z,11.20
2023-03-21T08:21:14.785Z,16.00
2023-03-21T08:24:59.575Z,16.30
2023-03-21T08:29:03.331Z,16.50
2023-03-21T08:33:00.504Z,14.70
2023-03-21T08:36:51.054Z,19.80
2023-03-21T08:40:02.581Z,17.40
2023-03-21T08:44:06.250Z,18.10
2023-03-21T08:48:10.238Z,18.00
2023-03-21T08:52:11.749Z,19.50
2023-03-21T08:56:10.339Z,20.30
2023-03-21T09:00:14.110Z,17.40
2023-03-21T09:04:04.423Z,19.50
2023-03-21T09:08:07.685Z,22.10
2023-03-21T09:11:53.879Z,14.40
2023-03-21T09:15:37.168Z,23.10
2023-03-21T09:19:38.738Z,15.70
2023-03-21T09:23:56.576Z,21.80
2023-03-21T09:27:37.076Z,22.90
2023-03-21T09:30:54.811Z,23.30
2023-03-21T09:34:09.011Z,15.80
2023-03-21T09:37:22.056Z,18.30
2023-03-21T09:40:51.779Z,17.20
2023-03-21T09:44:32.052Z,12.90
2023-03-21T09:47:49.795Z,15.70
2023-03-21T09:50:55.929Z,24.10
2023-03-21T09:54:25.536Z,19.70
2023-03-21T09:57:43.252Z,21.30
2023-03-21T10:00:56.716Z,21.60
2023-03-21T10:04:14.244Z,23.50
2023-03-21T10:14:07.907Z,19.40
2023-03-21T10:17:43.165Z,21.80
2023-03-21T10:20:50.729Z,19.80
2023-03-21T10:24:05.366Z,17.50
2023-03-21T10:27:13.436Z,20.20
2023-03-21T10:30:32.416Z,20.60
2023-03-21T10:33:47.734Z,18.50
2023-03-21T10:37:04.639Z,15.30
2023-03-21T10:40:15.685Z,19.30
2023-03-21T10:43:37.553Z,18.70
2023-03-21T10:46:55.425Z,18.60
2023-03-21T10:50:08.927Z,15.90
2023-03-21T10:53:25.412Z,14.90
2023-03-21T10:56:31.856Z,16.60
2023-03-21T10:59:39.943Z,13.90
2023-03-21T11:02:46.826Z,15.00
2023-03-21T11:05:56.372Z,16.00
2023-03-21T11:09:06.114Z,16.70
2023-03-21T11:12:28.413Z,18.20
2023-03-21T11:16:05.001Z,16.90
2023-03-21T11:19:30.887Z,16.60
2023-03-21T11:22:43.596Z,16.00
2023-03-21T11:25:51.115Z,17.30
2023-03-21T11:28:55.376Z,16.40
2023-03-21T11:32:22.727Z,15.20
2023-03-21T11:35:32.551Z,14.10
2023-03-21T11:38:40.254Z,14.60
2023-03-21T11:41:47.415Z,16.20
2023-03-21T11:44:59.980Z,16.20
2023-03-21T11:48:13.005Z,12.90
2023-03-21T11:51:21.867Z,18.50
2023-03-21T11:54:30.932Z,17.10
2023-03-21T11:57:39.958Z,17.30
2023-03-21T12:00:54.884Z,17.80
2023-03-21T12:04:44.937Z,16.50
2023-03-21T12:08:33.224Z,16.40
2023-03-21T12:11:39.019Z,16.90
2023-03-21T12:14:57.646Z,17.80
2023-03-21T12:18:12.485Z,17.80
2023-03-21T12:22:09.418Z,19.20
2023-03-21T12:25:20.357Z,17.10
2023-03-21T12:28:33.515Z,16.60
2023-03-21T12:32:15.551Z,16.90
2023-03-21T12:35:46.109Z,19.10
2023-03-21T12:39:04.375Z,18.70
2023-03-21T12:42:36.771Z,20.40
2023-03-21T12:45:47.283Z,20.00
2023-03-21T12:49:00.514Z,21.80
2023-03-21T12:52:32.894Z,21.00
2023-03-21T12:55:39.591Z,24.20
2023-03-21T12:58:59.088Z,22.00
2023-03-21T13:02:31.273Z,22.60
2023-03-21T13:05:39.101Z,21.10
2023-03-21T13:09:01.922Z,15.20
2023-03-21T13:12:28.841Z,15.20
2023-03-21T13:15:54.791Z,18.60
2023-03-21T13:19:13.379Z,14.60
2023-03-21T13:22:31.445Z,14.00
2023-03-21T13:25:42.537Z,14.00
2023-03-21T13:28:52.263Z,15.30
2023-03-21T13:32:12.507Z,14.00
2023-03-21T13:35:29.255Z,14.40
2023-03-21T13:38:40.060Z,14.60
2023-03-21T13:41:51.806Z,16.10
2023-03-21T13:48:34.077Z,14.60
2023-03-21T13:51:40.103Z,16.50
2023-03-21T13:54:52.644Z,16.40
2023-03-21T13:57:58.834Z,17.40
2023-03-21T14:01:16.211Z,17.10
2023-03-21T14:04:41.984Z,16.70
2023-03-21T14:08:36.528Z,16.20
2023-03-21T14:11:46.709Z,16.70
2023-03-21T14:14:54.191Z,18.30
2023-03-21T14:18:16.312Z,19.80
2023-03-21T14:21:34.215Z,21.10
2023-03-21T14:24:41.356Z,21.60
2023-03-21T14:27:57.142Z,21.00
2023-03-21T14:31:07.274Z,22.40
2023-03-21T14:34:17.869Z,20.50
2023-03-21T14:37:31.850Z,20.30
2023-03-21T14:40:38.445Z,22.50
2023-03-21T14:43:47.436Z,20.60
2023-03-21T14:46:56.556Z,20.60
2023-03-21T14:50:13.611Z,21.80
2023-03-21T14:53:23.429Z,20.90
2023-03-21T14:56:39.678Z,22.70
2023-03-21T15:00:01.904Z,24.50
2023-03-21T15:03:18.790Z,23.30
2023-03-21T15:06:30.713Z,22.30
2023-03-21T15:12:56.269Z,23.10
2023-03-21T15:16:00.465Z,23.90
2023-03-21T15:19:17.234Z,21.80
2023-03-21T15:22:57.911Z,21.80
2023-03-21T15:26:21.206Z,24.70
2023-03-21T15:29:41.986Z,22.10
2023-03-21T15:33:05.030Z,20.40
2023-03-21T15:36:10.123Z,21.20
2023-03-21T15:39:17.464Z,22.20
2023-03-21T15:43:13.243Z,20.50
2023-03-21T15:46:49.027Z,20.50
2023-03-21T15:50:19.984Z,19.60
2023-03-21T15:53:53.317Z,20.40
2023-03-21T15:57:59.890Z,18.80
2023-03-21T16:01:33.096Z,17.90
2023-03-21T16:05:27.640Z,18.80
2023-03-21T16:09:04.751Z,21.10
2023-03-21T16:12:44.331Z,19.90
2023-03-21T16:16:10.861Z,18.60
2023-03-21T16:19:52.633Z,17.90
2023-03-21T16:23:34.837Z,20.60
2023-03-21T16:27:22.576Z,19.80
2023-03-21T16:31:05.196Z,16.30
2023-03-21T16:35:01.790Z,20.60
2023-03-21T16:38:58.910Z,23.20
2023-03-21T16:42:47.628Z,25.40
2023-03-21T16:46:47.224Z,27.20
2023-03-21T16:50:35.750Z,25.30
2023-03-21T16:54:24.984Z,18.30
2023-03-21T16:58:21.654Z,12.40
2023-03-21T17:02:01.473Z,12.50
2023-03-21T17:05:55.085Z,15.40
2023-03-21T17:09:15.618Z,18.50
2023-03-21T17:12:54.437Z,21.20
2023-03-21T17:16:33.236Z,19.30
2023-03-21T17:20:05.920Z,22.40
2023-03-21T17:23:45.825Z,19.60
2023-03-21T17:27:27.360Z,20.30
2023-03-21T17:31:30.963Z,16.50
2023-03-21T17:35:34.740Z,15.90
2023-03-21T17:39:36.504Z,17.10
2023-03-21T17:43:01.387Z,15.90
2023-03-21T17:47:03.961Z,15.70
2023-03-21T17:51:03.438Z,17.20
2023-03-21T17:54:25.124Z,19.40
2023-03-21T17:58:05.515Z,21.40
2023-03-21T18:01:52.866Z,21.50
2023-03-21T18:05:43.407Z,23.80
2023-03-21T18:09:21.731Z,27.00
2023-03-21T18:12:48.837Z,26.00
2023-03-21T18:16:37.925Z,22.80
2023-03-21T18:20:51.707Z,29.60
2023-03-21T18:24:27.324Z,35.40
2023-03-21T18:28:31.380Z,42.90
2023-03-21T18:32:11.989Z,39.40
2023-03-21T18:35:46.764Z,41.50
2023-03-21T18:39:50.669Z,42.80
2023-03-21T18:44:05.868Z,35.20
2023-03-21T18:47:55.503Z,28.70
2023-03-21T18:51:44.365Z,28.50
2023-03-21T18:55:45.951Z,27.30
2023-03-21T18:59:36.466Z,28.90
2023-03-21T19:03:35.885Z,27.40
2023-03-21T19:07:21.995Z,27.50
2023-03-21T19:10:53.041Z,36.70
2023-03-21T19:14:20.371Z,39.40
2023-03-21T19:25:18.418Z,44.30
2023-03-21T19:29:22.200Z,37.20
2023-03-21T19:33:16.981Z,60.00
2023-03-21T19:36:57.863Z,49.30
2023-03-21T19:40:31.831Z,40.50
2023-03-21T19:44:02.958Z,33.00
2023-03-21T19:48:06.643Z,39.20
2023-03-21T19:52:00.641Z,38.20
2023-03-21T19:56:16.494Z,39.30
2023-03-21T19:59:55.197Z,41.30
2023-03-21T20:03:41.885Z,33.50
2023-03-21T20:07:45.674Z,28.80
2023-03-21T20:11:27.889Z,34.80
2023-03-21T20:15:26.843Z,29.20
2023-03-21T20:19:53.066Z,30.60
2023-03-21T20:23:39.864Z,33.90
2023-03-21T20:27:08.753Z,33.20
2023-03-21T20:31:02.647Z,36.00
2023-03-21T20:35:10.291Z,35.80
2023-03-21T20:38:58.795Z,32.80
2023-03-21T20:42:32.764Z,33.80
2023-03-21T20:46:22.997Z,30.30
2023-03-21T20:50:12.980Z,29.80
2023-03-21T20:57:20.044Z,34.80
2023-03-21T21:01:16.502Z,30.20
2023-03-21T21:05:35.446Z,31.00
2023-03-21T21:09:37.902Z,30.80
2023-03-21T21:13:41.472Z,32.10
2023-03-21T21:18:02.138Z,38.90
2023-03-21T21:21:59.268Z,38.50
2023-03-21T21:25:48.602Z,40.40
2023-03-21T21:29:31.282Z,47.40
2023-03-21T21:33:27.079Z,45.10
2023-03-21T21:37:23.407Z,41.70
2023-03-21T21:41:29.736Z,42.00
2023-03-21T21:45:18.348Z,47.40
2023-03-21T21:49:13.661Z,48.40
2023-03-21T21:53:04.377Z,43.60
2023-03-21T21:57:08.137Z,33.50
2023-03-21T22:00:56.330Z,33.30
2023-03-21T22:04:49.694Z,33.70
2023-03-21T22:08:35.221Z,30.40
2023-03-21T22:12:17.965Z,31.90
2023-03-21T22:16:14.416Z,35.50
2023-03-21T22:20:06.514Z,31.70
2023-03-21T22:23:38.708Z,24.20
2023-03-21T22:27:29.002Z,37.30
2023-03-21T22:31:27.253Z,31.10
2023-03-21T22:35:23.547Z,20.70
2023-03-21T22:39:27.305Z,18.20
2023-03-21T22:43:16.879Z,16.50
2023-03-21T22:47:20.483Z,17.10
2023-03-21T22:51:24.117Z,14.80
2023-03-21T22:55:12.293Z,15.30
2023-03-21T22:59:15.858Z,19.30
2023-03-21T23:03:10.846Z,16.40
2023-03-21T23:07:02.153Z,18.70
2023-03-21T23:11:05.880Z,19.00
2023-03-21T23:15:08.351Z,16.60
2023-03-21T23:19:04.963Z,11.30
2023-03-21T23:23:11.651Z,12.70
2023-03-21T23:27:08.479Z,11.90
2023-03-21T23:31:05.060Z,13.10
2023-03-21T23:34:53.930Z,16.90
2023-03-21T23:38:41.933Z,11.70
2023-03-21T23:42:39.631Z,14.80
2023-03-21T23:46:43.230Z,17.60
2023-03-21T23:50:39.893Z,14.30
2023-03-21T23:54:43.734Z,16.10
2023-03-21T23:58:29.503Z,12.20
